Aviation Digital Data Service (ADDS)

Output produced by METARs form (1911 UTC 25 June 2017)
found at http://www.aviationweather.gov/adds/metars/
 
LYBE 251900Z 13006KT CAVOK 28/14 Q1009 NOSIG
TAF LYBE 251700Z 2518/2618 14012KT CAVOK TX32/2518Z TN20/2604Z 
     BECMG 2523/2601 30010KT 
     TEMPO 2523/2607 SHRA SCT033TCU SCT040 
     PROB40 
     TEMPO 2523/2603 33015G30KT 5000 TSRA SCT030CB BKN033
       
LYNI 251900Z 08005KT CAVOK 26/14 Q1011
TAF LYNI 251700Z 2518/2618 11007KT CAVOK TX32/2614Z TN18/2603Z 
     BECMG 2606/2608 30010KT 
     TEMPO 2609/2618 32018G35KT 4000 TSRA SCT030CB SCT040
       
LYVR 251900Z 15013KT CAVOK 28/15 Q1010 NOSIG
TAF LYVR 251700Z 2518/2618 15010KT CAVOK TX32/2518Z TN21/2603Z 
     BECMG 2604/2606 30010KT 
     TEMPO 2605/2611 5000 SHRA FEW013 SCT030TCU SCT033
       
LYKV 251900Z 33003KT CAVOK 25/17 Q1011 NOSIG
TAF LYKV 251700Z 2518/2618 14006KT 9999 SCT040 TX30/2518Z TN16/2603Z 
     BECMG 2604/2606 32010KT 
     TEMPO 2605/2609 5000 SHRA SCT030TCU BKN035 
     PROB40 
     TEMPO 2613/2617 32010G25KT 4000 TSRA SCT027CB SCT035
       
LYBT 251900Z 09008KT CAVOK 27/13 Q1009 NOSIG
TAF LYBT 251700Z 2518/2618 14010KT CAVOK TX31/2518Z TN20/2603Z 
     BECMG 2523/2601 30010KT 
     TEMPO 2523/2606 SHRA SCT030TCU SCT040 
     PROB40 
     TEMPO 2523/2603 32015G30KT 5000 TSRA SCT027CB BKN033
       
LYUZ 251900Z AUTO 11003KT CAVOK 23/14 Q1015
TAF LYUZ 251100Z 2512/2612 11008KT 9999 SCT020 TX28/2514Z TN16/2604Z 
     PROB30 
     TEMPO 2514/2517 TSRA SCT017CB SCT020 
     BECMG 2523/2601 30010KT 
     TEMPO 2601/2605 3000 TSRA SCT015CB BKN020